Time;durP1;ratioP1;P1;durP2;ratioP2;P2;SDS_P1;SDS_P2;PMS_P1;PMS_P2;Temp;Humidity;BMP_temperature;BMP_pressure;BME280_temperature;BME280_humidity;BME280_pressure;Samples;Min_cycle;Max_cycle;Signal;HPM_P1;HPM_P2
2023/02/26 00:01:22;;;;;;;5.63;1.20;;;0.00;99.90;;;;;;5000937;28;20404;-76
2023/02/26 00:03:53;;;;;;;5.93;1.50;;;-0.10;99.90;;;;;;5029227;28;20040;-76
2023/02/26 00:06:20;;;;;;;3.67;0.87;;;-0.10;99.90;;;;;;5031990;28;20036;-76
2023/02/26 00:08:46;;;;;;;2.87;0.80;;;-0.10;99.90;;;;;;5028574;28;20484;-76
2023/02/26 00:11:14;;;;;;;3.47;0.60;;;-0.20;99.90;;;;;;5015050;28;20055;-75
2023/02/26 00:13:42;;;;;;;4.97;0.77;;;-0.20;99.90;;;;;;5030018;28;20378;-76
2023/02/26 00:16:34;;;;;;;5.33;0.70;;;-0.20;99.90;;;;;;5014669;28;20050;-77
2023/02/26 00:19:03;;;;;;;6.27;0.83;;;-0.20;99.90;;;;;;5012075;28;20044;-76
2023/02/26 00:21:31;;;;;;;6.73;0.80;;;-0.20;99.90;;;;;;5032406;28;20041;-75
2023/02/26 00:23:57;;;;;;;4.73;0.90;;;-0.30;99.90;;;;;;5013338;28;20041;-75
2023/02/26 00:26:25;;;;;;;8.63;1.20;;;-0.30;99.90;;;;;;5014051;28;20399;-76
2023/02/26 00:28:52;;;;;;;5.77;0.93;;;-0.30;99.90;;;;;;5012755;28;20037;-76
2023/02/26 00:31:25;;;;;;;4.33;0.80;;;-0.30;99.90;;;;;;5000117;28;20032;-76
2023/02/26 00:33:53;;;;;;;3.42;0.95;;;-0.40;99.90;;;;;;5011701;28;20041;-76
2023/02/26 00:36:43;;;;;;;4.83;1.00;;;-0.40;99.90;;;;;;5014817;28;20047;-75
2023/02/26 00:39:37;;;;;;;5.20;1.53;;;-0.40;99.90;;;;;;5028529;28;20388;-76
2023/02/26 00:42:04;;;;;;;2.30;0.50;;;-0.40;99.90;;;;;;5013751;28;20665;-76
2023/02/26 00:44:31;;;;;;;2.90;0.50;;;-0.40;99.90;;;;;;5013554;28;20041;-76
2023/02/26 00:47:02;;;;;;;3.87;0.60;;;-0.40;99.90;;;;;;5014857;28;20045;-76
2023/02/26 00:49:54;;;;;;;3.10;0.80;;;-0.40;99.90;;;;;;5013407;28;20039;-76
2023/02/26 00:52:42;;;;;;;5.80;0.97;;;-0.40;99.90;;;;;;5029185;28;20037;-76
2023/02/26 00:55:09;;;;;;;5.33;0.80;;;-0.40;99.90;;;;;;5014233;28;20322;-75
2023/02/26 00:57:36;;;;;;;4.00;0.60;;;-0.40;99.90;;;;;;5012880;28;20045;-76
2023/02/26 01:00:06;;;;;;;2.60;0.83;;;-0.40;99.90;;;;;;5014148;28;20044;-76
2023/02/26 01:02:37;;;;;;;10.13;1.10;;;-0.50;99.90;;;;;;5027948;28;20033;-76
2023/02/26 01:05:04;;;;;;;7.80;1.47;;;-0.40;99.90;;;;;;5029829;28;20044;-76
2023/02/26 01:07:40;;;;;;;4.33;1.33;;;-0.40;99.90;;;;;;5013753;28;21042;-76
2023/02/26 01:10:08;;;;;;;11.63;1.27;;;-0.40;99.90;;;;;;5028454;28;20062;-76
2023/02/26 01:12:35;;;;;;;7.50;0.70;;;-0.40;99.90;;;;;;5027961;28;20523;-75
2023/02/26 01:15:02;;;;;;;6.50;1.10;;;-0.30;99.90;;;;;;5031965;28;20065;-75
2023/02/26 01:17:38;;;;;;;4.37;0.80;;;-0.30;99.90;;;;;;5013063;28;20036;-76
2023/02/26 01:20:40;;;;;;;6.67;1.00;;;-0.30;99.90;;;;;;4995133;28;20035;-75
2023/02/26 01:23:11;;;;;;;5.40;1.10;;;-0.20;99.90;;;;;;5018266;28;20045;-76
2023/02/26 01:25:53;;;;;;;2.13;0.60;;;-0.20;99.90;;;;;;5028485;28;20044;-75
2023/02/26 01:28:20;;;;;;;4.15;0.60;;;-0.20;99.90;;;;;;5012513;28;20491;-75
2023/02/26 01:30:47;;;;;;;5.20;0.70;;;-0.20;99.90;;;;;;4997692;28;20048;-76
2023/02/26 01:33:24;;;;;;;4.03;0.70;;;-0.20;99.90;;;;;;5010931;28;20511;-75
2023/02/26 01:36:02;;;;;;;6.53;0.77;;;-0.20;99.90;;;;;;5013597;28;20044;-76
2023/02/26 01:38:51;;;;;;;4.23;0.60;;;-0.30;99.90;;;;;;5016290;28;20033;-75
2023/02/26 01:41:26;;;;;;;4.37;0.73;;;-0.30;99.90;;;;;;5012454;28;20033;-76
2023/02/26 01:44:06;;;;;;;8.43;0.77;;;-0.30;99.90;;;;;;5026981;28;20661;-75
2023/02/26 01:46:55;;;;;;;6.67;0.77;;;-0.30;99.90;;;;;;5030823;28;20037;-76
2023/02/26 01:49:21;;;;;;;2.93;0.73;;;-0.30;99.90;;;;;;5027442;28;20400;-76
2023/02/26 01:51:52;;;;;;;1.77;0.40;;;-0.40;99.90;;;;;;5028669;28;20036;-76
2023/02/26 01:54:21;;;;;;;1.73;0.50;;;-0.40;99.90;;;;;;5028111;28;20029;-76
2023/02/26 01:56:53;;;;;;;5.60;0.50;;;-0.40;99.90;;;;;;5011876;28;20451;-75
2023/02/26 01:59:23;;;;;;;2.47;0.47;;;-0.40;99.90;;;;;;5027904;28;20041;-76
2023/02/26 02:01:52;;;;;;;2.77;0.50;;;-0.50;99.90;;;;;;5031343;28;20383;-75
2023/02/26 02:04:19;;;;;;;3.93;0.47;;;-0.50;99.90;;;;;;5028060;28;20040;-76
2023/02/26 02:06:46;;;;;;;3.60;0.50;;;-0.50;99.90;;;;;;5028816;28;20025;-76
2023/02/26 02:09:13;;;;;;;5.20;0.73;;;-0.60;99.90;;;;;;5026587;28;20049;-75
2023/02/26 02:12:12;;;;;;;6.80;0.50;;;-0.60;99.90;;;;;;5030263;28;20037;-76
2023/02/26 02:15:03;;;;;;;4.47;0.87;;;-0.60;99.90;;;;;;4999373;28;20053;-76
2023/02/26 02:17:50;;;;;;;2.53;0.60;;;-0.70;99.90;;;;;;5011619;28;20448;-75
2023/02/26 02:20:25;;;;;;;5.33;0.60;;;-0.70;99.90;;;;;;5027555;28;20040;-77
2023/02/26 02:23:24;;;;;;;4.00;0.77;;;-0.80;99.90;;;;;;5029115;28;20036;-76
2023/02/26 02:26:12;;;;;;;2.73;0.60;;;-0.70;99.90;;;;;;5011508;28;20041;-76
2023/02/26 02:28:45;;;;;;;2.27;0.67;;;-0.80;99.90;;;;;;5027170;28;20059;-76
2023/02/26 02:31:23;;;;;;;4.40;0.70;;;-0.90;99.90;;;;;;5011579;28;20040;-77
2023/02/26 02:34:12;;;;;;;2.73;0.57;;;-0.90;99.90;;;;;;5028219;28;20415;-76
2023/02/26 02:37:01;;;;;;;3.17;0.50;;;-0.90;99.90;;;;;;5032010;28;20488;-77
2023/02/26 02:39:35;;;;;;;4.73;0.70;;;-0.90;99.90;;;;;;5010861;28;20040;-76
2023/02/26 02:42:19;;;;;;;6.40;0.60;;;-1.00;99.90;;;;;;4996935;28;20494;-77
2023/02/26 02:44:55;;;;;;;3.23;0.50;;;-1.00;99.90;;;;;;5028040;28;20059;-76
2023/02/26 02:47:23;;;;;;;2.70;0.50;;;-1.00;99.90;;;;;;5010528;28;20468;-77
2023/02/26 02:50:19;;;;;;;6.50;0.60;;;-1.10;99.90;;;;;;5028669;28;20424;-77
2023/02/26 02:53:09;;;;;;;3.70;0.50;;;-1.10;99.90;;;;;;5009991;28;20506;-77
2023/02/26 02:55:41;;;;;;;4.50;0.50;;;-1.10;99.90;;;;;;5030048;28;20041;-78
2023/02/26 02:58:18;;;;;;;4.50;0.60;;;-1.10;99.90;;;;;;4992155;28;20061;-78
2023/02/26 03:00:48;;;;;;;3.07;0.60;;;-1.10;99.90;;;;;;5013949;28;20052;-79
2023/02/26 03:03:26;;;;;;;3.73;0.70;;;-1.20;99.90;;;;;;5010667;28;20041;-78
2023/02/26 03:05:52;;;;;;;3.47;0.50;;;-1.20;99.90;;;;;;5029170;28;20486;-76
2023/02/26 03:08:25;;;;;;;2.37;0.60;;;-1.20;99.90;;;;;;5027338;28;20395;-77
2023/02/26 03:10:52;;;;;;;4.00;0.90;;;-1.20;99.90;;;;;;5026702;28;20036;-78
2023/02/26 03:13:23;;;;;;;3.97;1.03;;;-1.20;99.90;;;;;;5024268;28;20041;-77
2023/02/26 03:16:03;;;;;;;2.60;0.63;;;-1.20;99.90;;;;;;5027749;28;20048;-77
2023/02/26 03:18:36;;;;;;;2.83;0.47;;;-1.20;99.90;;;;;;5010515;28;20040;-77
2023/02/26 03:21:28;;;;;;;2.55;0.25;;;-1.20;99.90;;;;;;4995749;28;20047;-78
2023/02/26 03:23:59;;;;;;;2.03;0.73;;;-1.20;99.90;;;;;;5009186;28;20599;-77
2023/02/26 03:26:39;;;;;;;4.53;0.57;;;-1.20;99.90;;;;;;5012259;28;20036;-77
2023/02/26 03:29:13;;;;;;;4.93;0.50;;;-1.30;99.90;;;;;;5008483;28;20028;-77
2023/02/26 03:31:46;;;;;;;5.90;0.60;;;-1.20;99.90;;;;;;5028956;28;20037;-77
2023/02/26 03:34:22;;;;;;;4.88;0.45;;;-1.30;99.90;;;;;;5026919;28;20049;-77
2023/02/26 03:36:58;;;;;;;2.13;0.50;;;-1.30;99.90;;;;;;5012702;28;20493;-77
2023/02/26 03:39:36;;;;;;;2.70;0.30;;;-1.30;99.90;;;;;;5010322;28;20060;-78
2023/02/26 03:42:06;;;;;;;4.53;0.43;;;-1.20;99.90;;;;;;4994289;28;20131;-77
2023/02/26 03:44:54;;;;;;;3.07;0.40;;;-1.30;99.90;;;;;;4994158;28;20044;-77
2023/02/26 03:47:21;;;;;;;2.13;0.40;;;-1.30;99.90;;;;;;5027765;28;20048;-77
2023/02/26 03:49:56;;;;;;;2.07;0.30;;;-1.30;99.90;;;;;;5030089;28;20727;-78
2023/02/26 03:52:27;;;;;;;3.73;0.43;;;-1.30;99.90;;;;;;4995965;28;20041;-77
2023/02/26 03:55:24;;;;;;;5.23;0.40;;;-1.30;99.90;;;;;;5032312;28;20037;-77
2023/02/26 03:58:13;;;;;;;4.13;0.40;;;-1.30;99.90;;;;;;5013888;28;20040;-78
2023/02/26 04:01:05;;;;;;;3.30;0.50;;;-1.40;99.90;;;;;;5026392;28;20037;-77
2023/02/26 04:03:43;;;;;;;3.13;0.60;;;-1.40;99.90;;;;;;5012571;28;20427;-77
2023/02/26 04:06:10;;;;;;;3.10;0.50;;;-1.40;99.90;;;;;;5033227;28;20279;-78
2023/02/26 04:08:38;;;;;;;1.43;0.30;;;-1.40;99.90;;;;;;5013284;28;20032;-76
2023/02/26 04:11:16;;;;;;;3.23;0.40;;;-1.40;99.90;;;;;;5012921;28;20041;-76
2023/02/26 04:13:43;;;;;;;2.87;0.30;;;-1.40;99.90;;;;;;5012998;28;20082;-77
2023/02/26 04:16:09;;;;;;;1.47;0.30;;;-1.40;99.90;;;;;;5014708;28;20083;-76
2023/02/26 04:18:36;;;;;;;1.63;0.27;;;-1.40;99.90;;;;;;5013182;28;20415;-77
2023/02/26 04:21:04;;;;;;;2.27;0.50;;;-1.50;99.90;;;;;;5015316;28;20036;-76
2023/02/26 04:23:31;;;;;;;5.03;1.70;;;-1.50;99.90;;;;;;5011932;28;20037;-77
2023/02/26 04:25:58;;;;;;;2.40;0.30;;;-1.50;99.90;;;;;;5030948;28;20587;-76
2023/02/26 04:28:26;;;;;;;0.47;0.20;;;-1.50;99.90;;;;;;5010262;28;20044;-76
2023/02/26 04:30:52;;;;;;;2.17;0.40;;;-1.60;99.90;;;;;;5029257;28;20406;-76
2023/02/26 04:33:18;;;;;;;3.67;0.70;;;-1.60;99.90;;;;;;5028529;28;20351;-76
2023/02/26 04:35:46;;;;;;;3.00;0.67;;;-1.30;99.90;;;;;;5017912;28;20101;-77
2023/02/26 04:38:13;;;;;;;4.47;0.40;;;-1.10;99.90;;;;;;5016055;28;20037;-77
2023/02/26 04:40:39;;;;;;;3.50;0.30;;;-1.00;99.90;;;;;;4997539;28;20041;-76
2023/02/26 04:43:09;;;;;;;2.23;0.50;;;-1.00;99.90;;;;;;5011400;28;20044;-76
2023/02/26 04:45:47;;;;;;;3.63;0.63;;;-1.00;99.90;;;;;;5032447;28;20040;-76
2023/02/26 04:48:15;;;;;;;1.13;0.40;;;-1.00;99.90;;;;;;5013148;28;20041;-77
2023/02/26 04:50:42;;;;;;;5.43;0.60;;;-1.00;99.90;;;;;;5014522;28;20394;-76
2023/02/26 04:53:08;;;;;;;2.33;0.40;;;-1.00;99.90;;;;;;5012994;28;20521;-77
2023/02/26 04:55:37;;;;;;;3.40;0.30;;;-1.20;99.90;;;;;;5015215;28;20575;-77
2023/02/26 04:58:05;;;;;;;4.83;0.30;;;-1.20;99.90;;;;;;5013388;28;20037;-77
2023/02/26 05:00:32;;;;;;;4.80;0.40;;;-1.30;99.90;;;;;;5012764;28;20036;-76
2023/02/26 05:02:58;;;;;;;2.77;0.40;;;-1.40;99.90;;;;;;5010587;28;20617;-76
2023/02/26 05:05:25;;;;;;;4.53;0.40;;;-1.40;99.90;;;;;;5014129;28;20044;-77
2023/02/26 05:07:54;;;;;;;3.30;0.30;;;-1.50;99.90;;;;;;5028313;28;20097;-77
2023/02/26 05:10:21;;;;;;;4.23;0.40;;;-1.50;99.90;;;;;;5028662;28;20040;-77
2023/02/26 05:12:47;;;;;;;4.27;1.23;;;-1.50;99.90;;;;;;5029608;28;20036;-76
2023/02/26 05:15:14;;;;;;;10.10;0.53;;;-1.50;99.90;;;;;;5014145;28;20420;-77
2023/02/26 05:17:42;;;;;;;5.70;0.67;;;-1.50;99.90;;;;;;4999172;28;20624;-77
2023/02/26 05:20:09;;;;;;;3.30;0.30;;;-1.50;99.90;;;;;;5013729;28;20033;-77
2023/02/26 05:22:37;;;;;;;4.93;0.70;;;-1.50;99.90;;;;;;5009704;28;20036;-77
2023/02/26 05:25:05;;;;;;;4.77;0.37;;;-1.50;99.90;;;;;;4996327;28;20036;-78
2023/02/26 05:27:32;;;;;;;1.67;0.30;;;-1.50;99.90;;;;;;5030506;28;20037;-76
2023/02/26 05:29:58;;;;;;;2.37;0.30;;;-1.50;99.90;;;;;;5012170;28;20055;-76
2023/02/26 05:32:25;;;;;;;4.23;0.50;;;-1.50;99.90;;;;;;5009810;28;20040;-78
2023/02/26 05:34:55;;;;;;;2.07;0.40;;;-1.50;99.90;;;;;;5028466;28;20040;-78
2023/02/26 05:37:22;;;;;;;5.63;0.40;;;-1.50;99.90;;;;;;5031568;28;20382;-77
2023/02/26 05:39:48;;;;;;;4.20;0.40;;;-1.50;99.90;;;;;;5011047;28;20432;-77
2023/02/26 05:42:14;;;;;;;1.67;0.20;;;-1.50;99.90;;;;;;5029148;28;20048;-76
2023/02/26 05:44:41;;;;;;;6.87;0.67;;;-1.50;99.90;;;;;;5012043;28;20040;-77
2023/02/26 05:47:07;;;;;;;2.03;0.40;;;-1.60;99.90;;;;;;5031391;28;20041;-76
2023/02/26 05:49:33;;;;;;;4.90;0.70;;;-1.60;99.90;;;;;;5025444;28;20641;-76
2023/02/26 05:52:00;;;;;;;1.77;0.20;;;-1.60;99.90;;;;;;5028474;28;20404;-76
2023/02/26 05:54:26;;;;;;;1.40;0.30;;;-1.60;99.90;;;;;;5028309;28;20036;-77
2023/02/26 05:56:53;;;;;;;1.73;0.30;;;-1.60;99.90;;;;;;5014942;28;20051;-77
2023/02/26 05:59:19;;;;;;;3.13;0.40;;;-1.60;99.90;;;;;;5027421;28;20047;-79
2023/02/26 06:01:45;;;;;;;3.80;0.43;;;-1.60;99.90;;;;;;5030086;28;20053;-79
2023/02/26 06:04:12;;;;;;;5.00;0.40;;;-1.60;99.90;;;;;;5026235;28;20045;-80
2023/02/26 06:06:38;;;;;;;1.47;0.30;;;-1.60;99.90;;;;;;5011928;28;20052;-76
2023/02/26 06:09:04;;;;;;;4.00;0.30;;;-1.60;99.90;;;;;;5008805;28;20029;-78
2023/02/26 06:11:31;;;;;;;4.80;0.40;;;-1.60;99.90;;;;;;5011711;28;20051;-80
2023/02/26 06:13:58;;;;;;;3.33;0.40;;;-1.60;99.90;;;;;;5024948;28;20044;-80
2023/02/26 06:16:24;;;;;;;4.73;0.50;;;-1.60;99.90;;;;;;5011764;28;20028;-76
2023/02/26 06:18:50;;;;;;;3.20;0.40;;;-1.60;99.90;;;;;;5009813;28;20033;-77
2023/02/26 06:21:18;;;;;;;2.67;0.40;;;-1.50;99.90;;;;;;5011123;28;20036;-75
2023/02/26 06:23:44;;;;;;;3.73;0.40;;;-1.60;99.90;;;;;;5008006;28;20072;-76
2023/02/26 06:26:11;;;;;;;6.90;0.60;;;-1.50;99.90;;;;;;4994042;28;20029;-78
2023/02/26 06:28:37;;;;;;;2.13;0.23;;;-1.50;99.90;;;;;;5026509;28;20108;-76
2023/02/26 06:31:03;;;;;;;4.27;0.30;;;-1.50;99.90;;;;;;5024916;28;20032;-75
2023/02/26 06:33:29;;;;;;;15.73;5.60;;;-1.50;99.90;;;;;;5023746;28;20037;-76
2023/02/26 06:35:58;;;;;;;5.63;1.33;;;-1.50;99.90;;;;;;5012683;28;20051;-77
2023/02/26 06:38:24;;;;;;;6.63;1.90;;;-1.40;99.90;;;;;;5027182;28;20040;-76
2023/02/26 06:40:50;;;;;;;8.07;0.83;;;-1.40;99.90;;;;;;5009488;28;20037;-77
2023/02/26 06:43:17;;;;;;;3.77;0.70;;;-1.40;99.90;;;;;;5025286;28;20488;-78
2023/02/26 06:45:43;;;;;;;3.10;0.40;;;-1.30;99.90;;;;;;5027594;28;20045;-77
2023/02/26 06:48:09;;;;;;;1.73;0.40;;;-1.30;99.90;;;;;;5025520;28;20025;-77
2023/02/26 06:50:36;;;;;;;3.70;0.60;;;-1.20;99.90;;;;;;5026881;28;20175;-77
2023/02/26 06:53:03;;;;;;;3.33;0.60;;;-1.20;99.90;;;;;;5023293;28;20036;-77
2023/02/26 06:55:29;;;;;;;10.47;2.03;;;-1.20;99.90;;;;;;5027774;28;20509;-77
2023/02/26 06:57:57;;;;;;;4.70;1.13;;;-1.10;99.90;;;;;;5027548;28;20052;-76
2023/02/26 07:00:24;;;;;;;7.27;2.63;;;-1.00;99.90;;;;;;5025057;28;20476;-77
2023/02/26 07:02:51;;;;;;;5.70;0.50;;;-1.00;99.90;;;;;;5006282;28;20037;-76
2023/02/26 07:05:18;;;;;;;4.90;0.70;;;-0.90;99.90;;;;;;5009791;28;20033;-76
2023/02/26 07:07:44;;;;;;;3.50;0.30;;;-0.80;99.90;;;;;;5024112;28;20515;-76
2023/02/26 07:10:11;;;;;;;6.07;0.70;;;-0.70;99.90;;;;;;5009000;28;20488;-76
2023/02/26 07:12:38;;;;;;;5.23;0.40;;;-0.70;99.90;;;;;;5006059;28;20036;-76
2023/02/26 07:15:05;;;;;;;4.93;0.73;;;-0.60;99.90;;;;;;5025986;28;20049;-76
2023/02/26 07:17:32;;;;;;;7.80;0.40;;;-0.50;99.90;;;;;;5024803;28;20037;-76
2023/02/26 07:19:59;;;;;;;4.97;0.50;;;-0.40;99.90;;;;;;5022859;28;20052;-77
2023/02/26 07:22:25;;;;;;;3.87;0.37;;;-0.40;99.90;;;;;;5007193;28;20029;-76
2023/02/26 07:24:52;;;;;;;4.13;0.40;;;-0.30;99.90;;;;;;5012054;28;20040;-77
2023/02/26 07:27:18;;;;;;;6.00;0.50;;;-0.20;99.90;;;;;;5026626;28;20060;-77
2023/02/26 07:29:44;;;;;;;2.97;0.50;;;-0.10;99.90;;;;;;5027715;28;20037;-76
2023/02/26 07:32:11;;;;;;;6.43;0.40;;;0.00;99.90;;;;;;5030299;28;20040;-76
2023/02/26 07:34:37;;;;;;;5.43;0.97;;;0.10;99.90;;;;;;5026774;28;20041;-76
2023/02/26 07:37:03;;;;;;;4.57;0.60;;;0.10;99.90;;;;;;4996256;28;20033;-76
2023/02/26 07:39:29;;;;;;;3.80;0.67;;;0.20;99.90;;;;;;5028912;28;20491;-76
2023/02/26 07:41:56;;;;;;;5.40;0.40;;;0.30;99.90;;;;;;5029841;28;20094;-77
2023/02/26 07:44:22;;;;;;;3.23;0.60;;;0.40;99.90;;;;;;5010499;28;20375;-76
2023/02/26 07:46:48;;;;;;;4.43;0.50;;;0.40;99.90;;;;;;4997362;28;20036;-76
2023/02/26 07:49:15;;;;;;;5.73;0.50;;;0.50;99.90;;;;;;5029438;28;20032;-76
2023/02/26 07:51:44;;;;;;;4.93;1.43;;;0.60;99.90;;;;;;5031017;28;20387;-75
2023/02/26 07:54:12;;;;;;;2.97;0.60;;;0.60;99.90;;;;;;4996391;28;20384;-77
2023/02/26 07:56:40;;;;;;;7.53;1.23;;;0.60;99.90;;;;;;5029827;28;20587;-76
2023/02/26 07:59:06;;;;;;;4.97;0.73;;;0.70;99.90;;;;;;5029226;28;20059;-76
2023/02/26 08:01:32;;;;;;;5.40;0.60;;;0.80;99.90;;;;;;5029932;28;20029;-77
2023/02/26 08:03:59;;;;;;;4.17;0.50;;;0.80;99.90;;;;;;5026143;28;20400;-76
2023/02/26 08:06:26;;;;;;;4.80;0.47;;;0.80;99.90;;;;;;5031237;28;20048;-77
2023/02/26 08:08:53;;;;;;;2.03;0.50;;;0.90;99.90;;;;;;5030604;28;20033;-76
2023/02/26 08:11:19;;;;;;;3.67;0.50;;;0.90;99.90;;;;;;5030461;28;20033;-76
2023/02/26 08:13:46;;;;;;;6.63;1.00;;;1.00;99.90;;;;;;5028338;28;20397;-76
2023/02/26 08:16:12;;;;;;;7.37;0.83;;;1.00;99.90;;;;;;5032132;28;20148;-76
2023/02/26 08:18:39;;;;;;;2.87;0.50;;;1.10;99.90;;;;;;5028237;28;20036;-76
2023/02/26 08:21:05;;;;;;;2.60;0.50;;;1.10;99.90;;;;;;5031918;28;20029;-76
2023/02/26 08:23:31;;;;;;;5.30;0.50;;;1.20;99.90;;;;;;5008888;28;20033;-75
2023/02/26 08:26:09;;;;;;;7.37;0.57;;;1.30;99.90;;;;;;5031404;28;20036;-76
2023/02/26 08:28:35;;;;;;;2.20;0.40;;;1.30;99.90;;;;;;4996773;28;20043;-76
2023/02/26 08:31:02;;;;;;;5.00;0.60;;;1.40;99.90;;;;;;5010930;28;20682;-75
2023/02/26 08:33:29;;;;;;;4.37;0.50;;;1.40;99.90;;;;;;5012701;28;20060;-76
2023/02/26 08:35:57;;;;;;;5.23;0.50;;;1.60;99.90;;;;;;4999887;28;20516;-76
2023/02/26 08:38:25;;;;;;;3.17;0.40;;;1.60;99.90;;;;;;5027601;28;20158;-75
2023/02/26 08:40:51;;;;;;;3.70;0.40;;;1.70;99.90;;;;;;5027481;28;20054;-75
2023/02/26 08:43:18;;;;;;;4.13;0.53;;;1.80;99.90;;;;;;5012572;28;20036;-75
2023/02/26 08:45:45;;;;;;;4.20;0.60;;;1.90;99.90;;;;;;5033439;28;20033;-76
2023/02/26 08:48:11;;;;;;;5.80;0.40;;;2.00;99.90;;;;;;5027834;28;20309;-76
2023/02/26 08:50:39;;;;;;;4.10;0.50;;;2.10;99.90;;;;;;5011407;28;20037;-76
2023/02/26 08:53:05;;;;;;;5.90;0.67;;;2.10;99.90;;;;;;5028835;28;20033;-75
2023/02/26 08:55:32;;;;;;;2.33;0.30;;;2.20;99.90;;;;;;5030665;28;20041;-76
2023/02/26 08:57:59;;;;;;;6.03;0.80;;;2.30;99.90;;;;;;5008523;28;20051;-75
2023/02/26 09:00:25;;;;;;;4.70;0.43;;;2.40;99.90;;;;;;5027924;28;20044;-75
2023/02/26 09:02:51;;;;;;;12.00;1.00;;;2.40;99.90;;;;;;5026262;28;20059;-75
2023/02/26 09:05:18;;;;;;;7.37;0.80;;;2.50;99.90;;;;;;5030113;28;20484;-76
2023/02/26 09:07:44;;;;;;;3.43;0.53;;;2.60;99.90;;;;;;4994710;28;20041;-76
2023/02/26 09:10:14;;;;;;;5.10;0.47;;;2.60;99.90;;;;;;5010097;28;20368;-75
2023/02/26 09:12:41;;;;;;;2.90;0.30;;;2.60;99.90;;;;;;5029219;28;20040;-75
2023/02/26 09:15:09;;;;;;;7.10;0.50;;;2.70;99.90;;;;;;5011781;28;20053;-74
2023/02/26 09:17:37;;;;;;;1.50;0.40;;;2.80;99.90;;;;;;5026597;28;20037;-76
2023/02/26 09:20:04;;;;;;;3.63;0.50;;;2.90;99.90;;;;;;5026278;28;20074;-75
2023/02/26 09:22:30;;;;;;;7.80;0.50;;;3.00;99.90;;;;;;5027542;28;23556;-76
2023/02/26 09:24:57;;;;;;;7.27;0.50;;;3.10;99.90;;;;;;4994337;28;20547;-75
2023/02/26 09:27:24;;;;;;;5.37;0.70;;;3.10;99.90;;;;;;5031339;28;20518;-75
2023/02/26 09:29:50;;;;;;;2.83;0.30;;;3.20;99.90;;;;;;5024543;28;20025;-75
2023/02/26 09:32:16;;;;;;;3.33;0.90;;;3.20;99.90;;;;;;5013383;28;20037;-73
2023/02/26 09:34:42;;;;;;;3.93;0.50;;;3.30;99.90;;;;;;5026394;28;20063;-75
2023/02/26 09:37:09;;;;;;;3.73;0.90;;;3.30;99.90;;;;;;5011976;28;20036;-76
2023/02/26 09:39:36;;;;;;;2.17;0.40;;;3.40;99.90;;;;;;5026035;28;20291;-75
2023/02/26 09:42:20;;;;;;;2.83;0.40;;;3.40;99.90;;;;;;5028279;28;20037;-74
2023/02/26 09:44:48;;;;;;;3.90;0.40;;;3.50;99.90;;;;;;5026964;28;20607;-75
2023/02/26 09:47:16;;;;;;;3.70;0.70;;;3.50;99.90;;;;;;5022873;28;20028;-75
2023/02/26 09:49:46;;;;;;;4.60;0.47;;;3.60;99.90;;;;;;5020617;28;20033;-74
2023/02/26 09:52:37;;;;;;;4.67;0.37;;;3.60;99.90;;;;;;5025243;28;20055;-75
2023/02/26 09:55:28;;;;;;;2.50;0.43;;;3.70;99.90;;;;;;5029211;28;20038;-75
2023/02/26 09:58:10;;;;;;;3.70;0.57;;;3.80;99.90;;;;;;5022397;28;20040;-75
2023/02/26 10:00:40;;;;;;;4.60;0.77;;;3.80;99.90;;;;;;5007414;28;21344;-75
2023/02/26 10:03:38;;;;;;;1.50;0.30;;;3.90;99.90;;;;;;5006914;28;20063;-74
2023/02/26 10:06:20;;;;;;;2.43;0.20;;;3.90;99.90;;;;;;5016811;28;20037;-74
2023/02/26 10:09:19;;;;;;;2.63;0.40;;;3.90;99.90;;;;;;5008923;28;20052;-74
2023/02/26 10:12:09;;;;;;;5.87;0.30;;;3.90;99.90;;;;;;5026340;28;20033;-75
2023/02/26 10:14:47;;;;;;;2.43;0.30;;;4.00;99.90;;;;;;5024582;28;20048;-74
2023/02/26 10:17:32;;;;;;;1.70;0.30;;;4.10;99.90;;;;;;5028631;28;20048;-74
2023/02/26 10:20:14;;;;;;;2.97;0.40;;;4.30;99.90;;;;;;5040371;28;20033;-75
2023/02/26 10:23:05;;;;;;;3.47;0.30;;;4.60;99.90;;;;;;5025760;28;20067;-75
2023/02/26 10:25:43;;;;;;;3.33;0.40;;;4.90;99.90;;;;;;5012002;28;20040;-75
2023/02/26 10:28:15;;;;;;;2.65;0.30;;;5.10;99.90;;;;;;5024117;28;20037;-75
2023/02/26 10:30:57;;;;;;;1.90;0.30;;;5.40;99.90;;;;;;5025088;28;20043;-75
2023/02/26 10:33:58;;;;;;;1.60;0.30;;;5.80;99.90;;;;;;5024948;28;20443;-74
2023/02/26 10:36:29;;;;;;;4.55;0.30;;;6.10;99.20;;;;;;5026890;28;20488;-75
2023/02/26 10:39:22;;;;;;;2.05;0.30;;;6.40;98.30;;;;;;5026023;28;20067;-75
2023/02/26 10:41:50;;;;;;;2.65;0.35;;;6.70;98.30;;;;;;4997627;28;20033;-75
2023/02/26 10:44:40;;;;;;;1.27;0.30;;;7.00;96.40;;;;;;5028171;28;20048;-75
2023/02/26 10:47:54;;;;;;;2.08;0.43;;;7.00;96.20;;;;;;5012745;28;20028;-75
2023/02/26 10:50:22;;;;;;;2.13;0.40;;;7.30;95.80;;;;;;5025104;28;20098;-74
2023/02/26 10:52:50;;;;;;;2.70;0.32;;;7.70;95.30;;;;;;5027850;28;20494;-74
2023/02/26 10:55:38;;;;;;;2.15;0.30;;;8.00;95.10;;;;;;5030813;28;20415;-74
2023/02/26 10:58:13;;;;;;;2.97;0.40;;;8.50;94.70;;;;;;5025958;28;20341;-76
2023/02/26 11:00:45;;;;;;;4.40;0.50;;;8.70;91.90;;;;;;5031846;28;20602;-75
2023/02/26 11:03:22;;;;;;;2.00;0.38;;;8.90;92.40;;;;;;5014350;28;20041;-75
2023/02/26 11:05:49;;;;;;;2.92;0.35;;;9.10;91.00;;;;;;5015745;28;20037;-74
2023/02/26 11:08:24;;;;;;;3.60;0.28;;;9.00;89.70;;;;;;5032807;28;20063;-75
2023/02/26 11:10:57;;;;;;;3.35;0.40;;;8.70;88.60;;;;;;5027980;28;20044;-74
2023/02/26 11:13:30;;;;;;;2.53;0.30;;;8.40;88.90;;;;;;5014151;28;20040;-75
2023/02/26 11:15:57;;;;;;;;;;;8.30;87.20;;;;;;5013742;28;20044;-75
2023/02/26 11:18:37;;;;;;;3.00;0.30;;;7.90;86.80;;;;;;5013693;28;20530;-75
2023/02/26 11:21:05;;;;;;;3.80;0.40;;;7.70;87.50;;;;;;4998858;28;20344;-75
2023/02/26 11:23:33;;;;;;;1.45;0.30;;;7.50;88.10;;;;;;5014112;28;20048;-75
2023/02/26 11:26:07;;;;;;;2.22;0.30;;;7.50;88.20;;;;;;5017326;28;20032;-75
2023/02/26 11:28:53;;;;;;;2.08;0.47;;;7.40;88.60;;;;;;4999283;28;20032;-74
2023/02/26 11:31:22;;;;;;;2.83;0.30;;;7.10;89.10;;;;;;5012739;28;20514;-75
2023/02/26 11:33:57;;;;;;;2.03;0.30;;;6.70;89.60;;;;;;5010205;28;20372;-76
2023/02/26 11:36:28;;;;;;;2.10;0.30;;;6.50;90.00;;;;;;5012160;28;20040;-75
2023/02/26 11:39:02;;;;;;;3.67;0.70;;;6.30;90.20;;;;;;5029395;28;20059;-75
2023/02/26 11:41:29;;;;;;;1.42;0.30;;;6.10;90.20;;;;;;5028397;28;20033;-74
2023/02/26 11:44:01;;;;;;;2.58;0.35;;;6.00;90.40;;;;;;5028854;28;20515;-74
2023/02/26 11:46:27;;;;;;;3.85;0.30;;;5.90;90.60;;;;;;5015382;28;20682;-75
2023/02/26 11:48:57;;;;;;;2.03;0.40;;;5.90;90.50;;;;;;5030614;28;20037;-75
2023/02/26 11:51:25;;;;;;;2.60;0.55;;;5.80;90.60;;;;;;4996885;28;20036;-75
2023/02/26 11:53:53;;;;;;;1.27;0.30;;;5.80;91.00;;;;;;5031008;28;20029;-75
2023/02/26 11:56:42;;;;;;;2.75;0.20;;;5.70;91.40;;;;;;4999994;28;20052;-73
2023/02/26 11:59:21;;;;;;;1.98;0.30;;;5.80;91.30;;;;;;5026922;28;20060;-74
2023/02/26 12:01:49;;;;;;;2.35;0.30;;;5.70;91.00;;;;;;5029569;28;20033;-73
2023/02/26 12:04:21;;;;;;;1.67;0.30;;;5.60;90.80;;;;;;5031699;28;20878;-74
2023/02/26 12:06:52;;;;;;;2.60;0.30;;;5.60;91.10;;;;;;5048075;28;20492;-74
2023/02/26 12:09:20;;;;;;;1.33;0.30;;;5.50;91.10;;;;;;5008774;28;20506;-74
2023/02/26 12:12:09;;;;;;;2.13;0.40;;;5.50;91.40;;;;;;4994927;28;20518;-76
2023/02/26 12:14:57;;;;;;;3.08;0.40;;;5.60;91.20;;;;;;5032956;28;20064;-74
2023/02/26 12:18:00;;;;;;;2.13;0.30;;;5.80;91.40;;;;;;5047496;28;20044;-75
2023/02/26 12:20:37;;;;;;;4.45;1.55;;;6.40;91.40;;;;;;5028895;28;20045;-74
2023/02/26 12:23:42;;;;;;;2.05;0.40;;;7.30;89.80;;;;;;5012951;28;20048;-74
2023/02/26 12:26:31;;;;;;;1.85;0.20;;;8.00;88.10;;;;;;5029286;28;20086;-75
2023/02/26 12:29:05;;;;;;;4.85;0.30;;;8.40;86.50;;;;;;4999127;28;20037;-74
2023/02/26 12:31:55;;;;;;;3.15;0.30;;;8.60;86.20;;;;;;5029389;28;20041;-74
2023/02/26 12:34:37;;;;;;;2.05;0.45;;;9.30;85.10;;;;;;5030191;28;20827;-74
2023/02/26 12:37:15;;;;;;;2.78;0.30;;;9.90;81.70;;;;;;5014146;28;20049;-74
2023/02/26 12:40:05;;;;;;;2.63;0.20;;;10.40;80.30;;;;;;5026185;28;20041;-75
2023/02/26 12:43:02;;;;;;;1.15;0.20;;;11.10;77.90;;;;;;5030976;28;20040;-75
2023/02/26 12:45:38;;;;;;;1.50;0.20;;;11.50;76.80;;;;;;4999337;28;20483;-75
2023/02/26 12:48:33;;;;;;;1.77;0.25;;;11.90;75.00;;;;;;5030334;28;20033;-75
2023/02/26 12:51:15;;;;;;;10.63;4.78;;;12.60;74.60;;;;;;4984885;28;20041;-75
2023/02/26 12:53:52;;;;;;;2.63;0.80;;;13.00;70.70;;;;;;5030503;28;20471;-75
2023/02/26 12:56:54;;;;;;;1.77;0.20;;;13.30;69.60;;;;;;5013864;28;20048;-74
2023/02/26 12:59:53;;;;;;;1.30;0.30;;;13.40;68.00;;;;;;5027019;28;20598;-75
2023/02/26 13:02:31;;;;;;;1.95;0.38;;;13.40;67.30;;;;;;5012434;28;20048;-75
2023/02/26 13:05:04;;;;;;;2.22;0.30;;;13.50;65.40;;;;;;5029733;28;20063;-76
2023/02/26 13:07:37;;;;;;;3.30;0.20;;;13.70;65.50;;;;;;5030528;28;20047;-75
2023/02/26 13:10:12;;;;;;;0.50;0.20;;;13.70;64.80;;;;;;5025977;28;20029;-75
2023/02/26 13:13:10;;;;;;;1.10;0.20;;;13.50;63.30;;;;;;5028350;28;20318;-76
2023/02/26 13:15:47;;;;;;;1.50;0.20;;;12.50;62.90;;;;;;5023552;28;20057;-75
2023/02/26 13:18:22;;;;;;;1.98;0.20;;;10.90;65.90;;;;;;5026859;28;20036;-76
2023/02/26 13:21:00;;;;;;;2.33;0.30;;;9.80;68.60;;;;;;5009588;28;20037;-76